Latest Weather Observations for Murrurundi Gap

IDN60801

Issued at 3:33 pm EDT Friday 19 December 2014 (issued every 30 minutes, with the page automatically refreshed every 10 minutes)

About weather observations | Map of weather stations | Latest weather observations for NSW | Other Formats
Station Details ID: 061392 Name: MURRURUNDI GAP AWS Lat: -31.74 Lon: 150.79 Height: 729.4 m
Data from the previous 72 hours. | See also: Recent months for locations in New South Wales
Date/Time
EDT
Temp
°C
App
Temp
°C
Dew
Point
Rel
Hum
%
Delta-T
°C
Wind Press
QNH
hPa
Press
MSL
hPa
Rain
since 9 am
mm
Dir
 
Spd
km/h
Gust
km/h
Spd
kts
Gust
kts
19/03:30pm 26.6 21.8 5.5 26 11.2 WNW 20 33 11 18 1013.0 1009.4 0.0
19/03:00pm 25.9 18.7 -1.8 16 12.9 W 26 35 14 19 1013.0 1009.4 0.0
19/02:30pm 25.6 20.7 2.3 22 11.7 NW 17 28 9 15 1013.1 1009.5 0.0
19/02:00pm 24.8 18.5 3.5 25 10.8 NW 26 35 14 19 1013.6 1010.1 0.0
19/01:30pm 25.3 21.3 5.0 27 10.6 WSW 15 30 8 16 1013.7 1010.2 0.0
19/01:00pm 23.9 18.5 1.5 23 10.9 WNW 19 33 10 18 1013.9 1010.4 0.0
19/12:30pm 23.7 16.4 2.5 25 10.5 WNW 30 39 16 21 1014.1 1010.6 0.0
19/12:00pm 24.0 18.4 5.4 30 9.7 NW 24 41 13 22 1014.3 1010.7 0.0
19/11:30am 23.6 19.5 6.4 33 9.1 NW 17 24 9 13 1014.1 1010.6 0.0
19/11:00am 22.6 19.8 6.8 36 8.4 NW 11 17 6 9 1014.4 1010.8 0.0
19/10:30am 21.3 18.9 8.6 44 6.9 NNW 11 20 6 11 1014.7 1011.2 0.0
19/10:00am 21.1 18.3 8.4 44 6.9 NW 13 19 7 10 1014.7 1011.2 0.0
19/09:30am 20.5 17.8 10.3 52 5.7 NW 15 20 8 11 1014.7 1011.2 0.0
19/09:00am 19.2 15.4 9.1 52 5.5 NW 19 24 10 13 1014.6 1011.1 0.0
19/08:30am 18.4 13.9 8.4 52 5.4 NW 22 28 12 15 1014.4 1010.8 0.0
19/08:00am 17.9 13.6 7.9 52 5.3 NNW 20 28 11 15 1013.9 1010.4 0.0
19/07:30am 17.5 13.1 7.3 51 5.3 NNW 20 26 11 14 1013.8 1010.3 0.0
19/07:00am 17.0 11.1 5.9 48 5.6 NNW 26 30 14 16 1013.5 1010.0 0.0
19/06:30am 16.9 10.4 2.9 39 6.7 NNW 26 32 14 17 1013.2 1009.6 0.0
19/06:00am 17.1 10.8 1.5 35 7.2 NW 24 28 13 15 1012.7 1009.2 0.0
19/05:30am 17.7 11.0 1.2 33 7.6 NNW 26 30 14 16 1012.2 1008.7 0.0
19/05:00am 18.1 12.1 1.2 32 7.8 NW 22 28 12 15 1012.0 1008.5 0.0
19/04:30am 17.9 11.6 1.4 33 7.7 NW 24 28 13 15 1011.8 1008.2 0.0
19/04:00am 18.3 12.7 1.3 32 7.9 NW 20 24 11 13 1011.6 1008.0 0.0
19/03:30am 18.4 12.9 1.9 33 7.8 NW 20 26 11 14 1011.5 1007.9 0.0
19/03:00am 18.2 12.9 2.1 34 7.6 NW 19 22 10 12 1011.7 1008.1 0.0
19/02:30am 18.6 13.4 2.4 34 7.7 NNW 19 28 10 15 1011.7 1008.1 0.0
19/02:00am 19.4 13.6 2.3 32 8.2 NNW 22 28 12 15 1011.7 1008.1 0.0
19/01:30am 19.5 13.8 2.8 33 8.1 NNW 22 28 12 15 1011.9 1008.3 0.0
19/01:00am 19.7 13.6 3.0 33 8.1 NNW 24 28 13 15 1012.1 1008.6 0.0
19/12:30am 19.1 13.2 3.7 36 7.6 NNW 24 28 13 15 1012.4 1008.9 0.0
19/12:00am 19.4 13.1 3.6 35 7.8 NNW 26 30 14 16 1012.4 1008.9 0.0
 
Date/Time
EDT
Temp
°C
App
Temp
°C
Dew
Point
Rel
Hum
%
Delta-T
°C
Wind Press
QNH
hPa
Press
MSL
hPa
Rain
since 9 am
mm
Dir
 
Spd
km/h
Gust
km/h
Spd
kts
Gust
kts
18/11:30pm 19.2 13.7 3.8 36 7.6 NNW 22 26 12 14 1012.3 1008.8 0.0
18/11:00pm 18.9 13.5 4.3 38 7.3 NNW 22 28 12 15 1012.2 1008.7 0.0
18/10:30pm 19.1 13.2 3.7 36 7.6 NW 24 30 13 16 1012.1 1008.6 0.0
18/10:00pm 19.9 13.5 3.2 33 8.2 NNW 26 32 14 17 1011.7 1008.1 0.0
18/09:30pm 20.4 14.4 3.2 32 8.4 NNW 24 30 13 16 1011.2 1007.7 0.0
18/09:00pm 22.0 15.4 2.2 27 9.7 N 26 30 14 16 1011.1 1007.6 0.0
18/08:30pm 21.9 16.3 1.5 26 9.8 NNW 20 28 11 15 1010.7 1007.1 0.0
18/08:00pm 22.4 17.8 3.5 29 9.5 NW 17 22 9 12 1010.4 1006.8 0.0
18/07:30pm 23.1 15.7 2.0 25 10.3 NW 30 37 16 20 1009.6 1006.1 0.0
18/07:00pm 23.9 16.8 1.5 23 10.9 NW 28 39 15 21 1009.0 1005.4 0.0
18/06:30pm 24.5 16.9 2.6 24 10.9 NW 32 43 17 23 1008.8 1005.2 0.0
18/06:00pm 24.9 17.4 3.5 25 10.9 NW 32 41 17 22 1008.7 1005.2 0.0
18/05:30pm 24.9 21.6 12.8 47 7.2 NW 22 30 12 16 1009.0 1005.4 0.0
18/05:00pm 25.0 21.8 13.2 48 7.1 WNW 22 32 12 17 1008.8 1005.2 0.0
18/04:30pm 25.9 23.8 15.3 52 6.6 W 20 30 11 16 1008.5 1004.9 0.0
18/04:00pm 26.5 24.4 15.2 49 7.1 WNW 20 32 11 17 1008.0 1004.4 0.0
18/03:30pm 26.9 24.2 15.6 50 7.1 WNW 24 33 13 18 1008.1 1004.5 0.0
18/03:00pm 27.2 27.4 17.7 56 6.2 NW 13 24 7 13 1008.6 1005.0 0.0
18/02:30pm 26.8 25.7 17.3 56 6.1 WNW 19 26 10 14 1008.8 1005.2 0.0
18/02:00pm 25.9 24.5 16.5 56 6.0 NW 19 28 10 15 1008.9 1005.3 0.0
18/01:30pm 26.2 23.5 16.7 56 6.1 WNW 26 39 14 21 1009.1 1005.5 0.0
18/01:18pm 25.9 22.4 15.6 53 6.5 WNW 28 39 15 21 1009.0 1005.4 0.0
18/01:00pm 26.1 19.9 14.9 50 7.0 NW 41 54 22 29 1008.7 1005.1 0.0
18/12:38pm 26.2 21.3 15.3 51 6.8 NW 35 54 19 29 1008.6 1005.0 0.0
18/12:30pm 25.9 21.4 16.5 56 6.0 NW 35 46 19 25 1008.9 1005.3 0.0
18/12:00pm 25.9 19.6 15.6 53 6.5 NNW 43 50 23 27 1008.8 1005.2 0.0
18/11:30am 25.4 20.5 15.4 54 6.2 NNW 35 46 19 25 1009.3 1005.7 0.0
18/11:00am 25.1 21.0 16.0 57 5.7 NNW 32 41 17 22 1009.5 1005.9 0.0
18/10:30am 24.3 20.5 15.8 59 5.3 NNW 30 43 16 23 1010.0 1006.4 0.0
18/10:00am 23.6 20.4 15.4 60 5.1 NNW 26 35 14 19 1010.3 1006.7 0.0
18/09:30am 21.7 19.9 15.5 68 3.8 N 19 30 10 16 1010.6 1007.0 0.0
18/09:00am 19.0 17.6 13.4 70 3.3 N 13 22 7 12 1010.8 1007.3 1.2
18/08:38am 18.9 16.0 12.4 66 3.8 NNW 19 26 10 14 1011.0 1007.5 1.2
18/08:30am 17.6 17.6 16.3 92 0.8 NNW 11 24 6 13 1011.1 1007.6 1.2
18/08:00am 15.1 14.6 14.9 99 0.1 SE 11 13 6 7 1011.2 1007.7 1.2
18/07:49am 14.8 13.8 14.6 99 0.1 ESE 13 17 7 9 1010.9 1007.4 1.2
18/07:30am 14.3 12.4 14.1 99 0.1 SE 17 20 9 11 1011.1 1007.6 1.2
18/07:00am 14.0 11.6 13.8 99 0.1 SE 19 24 10 13 1010.7 1007.1 1.2
18/06:30am 13.8 10.0 13.6 99 0.1 SE 26 30 14 16 1010.8 1007.3 1.2
18/06:00am 13.6 9.4 13.4 99 0.1 SE 28 32 15 17 1009.7 1006.2 1.2
18/05:30am 13.6 9.4 13.4 99 0.1 SE 28 30 15 16 1009.3 1005.7 1.0
18/05:00am 13.7 9.9 13.5 99 0.1 SE 26 30 14 16 1009.4 1005.8 1.0
18/04:30am 13.7 9.5 13.5 99 0.1 SE 28 32 15 17 1008.8 1005.2 1.0
18/04:27am 13.7 9.5 13.5 99 0.1 SE 28 32 15 17 1008.8 1005.2 1.0
18/04:00am 14.4 11.2 14.2 99 0.1 SE 24 28 13 15 1008.5 1004.9 1.0
18/03:30am 14.3 11.4 14.1 99 0.1 ESE 22 26 12 14 1008.5 1004.9 1.0
18/03:23am 14.2 10.9 14.0 99 0.1 SE 24 28 13 15 1008.5 1004.9 1.0
18/03:16am 14.3 11.4 14.1 99 0.1 SE 22 26 12 14 1008.6 1005.0 1.0
18/03:00am 14.2 10.9 14.0 99 0.1 ESE 24 26 13 14 1008.9 1005.3 1.0
18/02:30am 13.9 10.5 13.7 99 0.1 ESE 24 28 13 15 1009.2 1005.6 1.0
18/02:00am 13.8 9.6 13.6 99 0.1 SE 28 32 15 17 1009.7 1006.2 1.0
18/01:30am 14.2 10.2 14.0 99 0.1 SE 28 33 15 18 1010.5 1006.9 1.0
18/01:06am 14.4 11.1 13.9 97 0.3 ESE 24 30 13 16 1011.9 1008.3 0.4
18/01:00am 14.4 11.0 13.6 95 0.5 SE 24 30 13 16 1011.9 1008.3 0.2
18/12:30am 14.5 11.4 13.4 93 0.6 SE 22 32 12 17 1011.4 1007.8 0.0
18/12:19am 14.8 11.2 13.2 90 0.9 SSE 24 33 13 18 1012.5 1009.0 0.0
18/12:00am 14.7 9.6 13.2 91 0.9 SE 32 37 17 20 1010.5 1006.9 0.0
 
Date/Time
EDT
Temp
°C
App
Temp
°C
Dew
Point
Rel
Hum
%
Delta-T
°C
Wind Press
QNH
hPa
Press
MSL
hPa
Rain
since 9 am
mm
Dir
 
Spd
km/h
Gust
km/h
Spd
kts
Gust
kts
17/11:30pm 15.2 9.9 13.1 87 1.2 SSE 33 39 18 21 1011.0 1007.5 0.0
17/11:00pm 15.7 10.6 13.2 85 1.4 SE 32 37 17 20 1010.7 1007.1 0.0
17/10:30pm 16.2 10.5 13.1 82 1.8 SSE 35 41 19 22 1010.5 1006.9 0.0
17/10:00pm 17.1 12.0 13.6 80 2.1 SSE 33 39 18 21 1010.4 1006.8 0.0
17/09:30pm 18.1 12.7 13.8 76 2.5 SSE 35 41 19 22 1009.7 1006.2 0.0
17/09:00pm 19.3 14.3 14.1 72 3.1 SSE 33 43 18 23 1009.4 1005.8 0.0
17/08:30pm 20.0 15.0 14.1 69 3.5 S 33 43 18 23 1009.0 1005.4 0.0
17/08:00pm 21.7 16.5 14.6 64 4.3 S 35 44 19 24 1008.5 1004.9 0.0
17/07:30pm 22.9 18.1 14.7 60 5.0 S 33 39 18 21 1007.9 1004.3 0.0
17/07:00pm 23.7 19.0 14.9 57 5.4 S 33 44 18 24 1007.4 1003.8 0.0
17/06:30pm 25.6 22.0 15.3 53 6.4 S 28 37 15 20 1007.1 1003.4 0.0
17/06:00pm 27.9 24.9 14.9 45 8.1 SSE 24 32 13 17 1006.6 1003.0 0.0
17/05:30pm 28.4 25.5 13.9 41 8.9 SSE 22 32 12 17 1006.3 1002.7 0.0
17/05:00pm 32.2 26.2 3.2 16 15.4 SW 24 39 13 21 1006.1 1002.5 0.0
17/04:30pm 32.5 27.8 5.9 19 14.7 WSW 20 44 11 24 1006.1 1002.5 0.0
17/04:03pm 32.1 26.2 5.6 19 14.6 WNW 26 46 14 25 1006.1 1002.5 0.0
17/04:00pm 32.7 27.6 7.5 21 14.4 WNW 24 39 13 21 1006.0 1002.4 0.0
17/03:30pm 32.5 24.7 6.7 20 14.5 WNW 37 56 20 30 1006.1 1002.5 0.0
17/03:00pm 32.3 24.0 9.2 24 13.5 WNW 43 69 23 37 1006.0 1002.4 0.0
17/02:55pm 32.3 25.1 9.2 24 13.4 NW 37 69 20 37 1006.1 1002.5 0.0
17/02:30pm 31.6 25.5 9.8 26 12.8 NW 32 50 17 27 1006.4 1002.8 0.0
17/02:00pm 30.7 24.1 10.1 28 12.1 NW 35 54 19 29 1007.2 1003.6 0.0
17/01:42pm 30.4 23.7 9.8 28 12.0 NW 35 54 19 29 1007.2 1003.6 0.0
17/01:30pm 30.2 22.7 10.7 30 11.5 NW 41 54 22 29 1007.3 1003.7 0.0
17/01:00pm 28.8 21.4 10.0 31 10.9 NW 39 52 21 28 1007.8 1004.2 0.0
17/12:36pm 29.0 23.1 11.1 33 10.6 NW 33 52 18 28 1007.7 1004.1 0.0
17/12:30pm 28.8 23.2 11.4 34 10.3 NW 32 39 17 21 1008.0 1004.4 0.0
17/12:00pm 27.8 23.1 13.3 40 8.8 NW 30 39 16 21 1008.3 1004.8 0.0
17/11:30am 27.4 21.2 10.2 34 10.0 NW 33 44 18 24 1008.2 1004.6 0.0
17/11:00am 26.9 21.6 12.5 40 8.6 NW 32 39 17 21 1008.3 1004.8 0.0
17/10:30am 25.5 20.0 12.0 43 8.0 NNW 32 41 17 22 1008.3 1004.8 0.0
17/10:00am 24.5 18.4 11.8 45 7.5 NNW 35 43 19 23 1008.2 1004.6 0.0
17/09:30am 24.3 18.8 12.3 47 7.1 NW 33 43 18 23 1008.5 1004.9 0.0
17/09:00am 23.7 16.7 11.1 45 7.3 NW 39 50 21 27 1008.3 1004.8 0.4
17/08:30am 23.4 17.4 12.1 49 6.6 NNW 35 46 19 25 1008.5 1004.9 0.4
17/08:00am 22.9 17.3 12.2 51 6.3 NNW 33 43 18 23 1008.1 1004.5 0.4
17/07:30am 22.1 16.7 12.1 53 5.8 NNW 32 39 17 21 1007.8 1004.2 0.4
17/07:00am 21.8 16.2 11.5 52 6.0 NNW 32 35 17 19 1007.6 1004.0 0.4
17/06:30am 20.2 15.5 11.9 59 4.8 NW 28 32 15 17 1007.3 1003.7 0.4
17/06:00am 20.9 16.1 11.5 55 5.4 NNW 28 33 15 18 1006.5 1002.9 0.4
17/05:30am 20.9 16.4 11.5 55 5.4 NW 26 32 14 17 1006.1 1002.5 0.4
17/05:00am 20.8 17.1 11.4 55 5.4 NNW 22 28 12 15 1005.9 1002.3 0.4
17/04:30am 21.5 17.4 11.5 53 5.8 NNW 24 28 13 15 1005.7 1002.0 0.4
17/04:00am 20.9 16.8 11.5 55 5.4 NNW 24 30 13 16 1005.6 1001.9 0.4
17/03:30am 20.2 16.2 11.9 59 4.8 NW 24 28 13 15 1005.5 1001.8 0.4
17/03:00am 20.2 16.2 11.9 59 4.8 NW 24 28 13 15 1005.6 1001.9 0.4
17/02:30am 20.5 16.4 11.4 56 5.2 NW 24 32 13 17 1005.6 1001.9 0.4
17/02:00am 21.1 16.6 11.4 54 5.6 NNW 26 32 14 17 1005.7 1002.0 0.4
17/01:30am 21.1 16.2 11.4 54 5.6 NNW 28 33 15 18 1006.0 1002.4 0.4
17/01:00am 21.3 17.0 11.9 55 5.5 NNW 26 32 14 17 1006.3 1002.7 0.4
17/12:30am 21.3 17.0 11.9 55 5.4 NNW 26 32 14 17 1006.4 1002.8 0.4
17/12:00am 21.4 17.9 12.3 56 5.3 NW 22 26 12 14 1006.5 1002.9 0.4
 
Date/Time
EDT
Temp
°C
App
Temp
°C
Dew
Point
Rel
Hum
%
Delta-T
°C
Wind Press
QNH
hPa
Press
MSL
hPa
Rain
since 9 am
mm
Dir
 
Spd
km/h
Gust
km/h
Spd
kts
Gust
kts
16/11:30pm 21.1 17.0 12.8 59 4.9 NW 26 32 14 17 1006.7 1003.1 0.4
16/11:00pm 21.1 18.4 13.0 60 4.8 WNW 19 22 10 12 1007.2 1003.6 0.4
16/10:30pm 21.4 17.3 12.8 58 5.1 NW 26 32 14 17 1007.0 1003.3 0.4
16/10:00pm 21.5 16.7 12.9 58 5.1 NW 30 37 16 20 1006.8 1003.2 0.4
16/09:30pm 21.7 18.7 12.5 56 5.4 NW 20 32 11 17 1007.0 1003.3 0.4
16/09:00pm 22.4 18.0 11.8 51 6.2 NW 26 33 14 18 1006.1 1002.5 0.4
16/08:30pm 23.0 18.2 11.7 49 6.6 NNW 28 39 15 21 1006.1 1002.5 0.4
16/08:17pm 23.0 17.5 12.0 50 6.4 N 32 50 17 27 1005.9 1002.3 0.4
16/08:00pm 23.1 17.7 12.1 50 6.5 NNW 32 46 17 25 1006.3 1002.7 0.4
16/07:30pm 22.4 17.9 12.6 54 5.8 NNW 28 41 15 22 1007.1 1003.4 0.4
16/07:00pm 22.0 18.6 13.6 59 5.0 NW 24 32 13 17 1006.6 1003.0 0.4
16/06:30pm 21.9 17.6 13.3 58 5.1 NW 28 33 15 18 1006.3 1002.7 0.4
16/06:00pm 22.7 18.1 12.3 52 6.1 NNW 28 41 15 22 1005.2 1001.6 0.4
16/05:30pm 20.4 16.1 14.5 69 3.6 NNW 30 37 16 20 1006.3 1002.7 0.4
16/05:20pm 19.9 16.6 15.1 74 2.9 NW 26 37 14 20 1006.5 1002.9 0.4
16/05:07pm 19.6 11.2 14.6 73 3.0 NW 52 95 28 51 1006.3 1002.7 0.4
16/05:06pm 19.7 10.2 14.3 71 3.2 NW 57 104 31 56 1006.3 1002.7 0.4
16/05:00pm 20.9 7.4 13.1 61 4.6 NW 76 130 41 70 1005.8 1002.1 0.2
16/04:57pm 21.9 8.9 12.2 54 5.7 NW 72 130 39 70 1004.3 1000.6 0.0
16/04:55pm 24.5 12.5 11.1 43 7.8 NW 65 130 35 70 1001.8 998.1 0.0
16/04:53pm 25.9 15.1 9.3 35 9.4 NW 56 98 30 53 1002.4 998.8 0.0
16/04:52pm 26.3 16.5 10.0 36 9.4 NW 52 95 28 51 1003.0 999.3 0.0
16/04:47pm 26.6 16.9 9.0 33 9.9 NW 50 72 27 39 1003.5 999.9 0.0
16/04:30pm 28.9 18.2 8.0 27 11.7 NW 54 67 29 36 1003.3 999.6 0.0
16/04:00pm 29.6 18.2 6.9 24 12.6 NNW 56 74 30 40 1003.5 999.9 0.0
16/03:49pm 29.8 20.0 7.1 24 12.6 NNW 48 69 26 37 1003.4 999.8 0.0

Other Formats:

Comma delimited format used in spreadsheet applications
http://www.bom.gov.au/fwo/IDN60801/IDN60801.95747.axf

JavaScript Object Notation format (JSON) in row-major order
http://www.bom.gov.au/fwo/IDN60801/IDN60801.95747.json